Time;durP1;ratioP1;P1;durP2;ratioP2;P2;SDS_P1;SDS_P2;PMS_P1;PMS_P2;Temp;Humidity;BMP_temperature;BMP_pressure;BME280_temperature;BME280_humidity;BME280_pressure;Samples;Min_cycle;Max_cycle;Signal;HPM_P1;HPM_P2
2021/10/10 00:01:07;;;;;;;0.50;0.40;;;7.10;99.90;;;;;;5078987;28;20201;-80
2021/10/10 00:03:34;;;;;;;0.50;0.40;;;7.20;99.90;;;;;;5078672;28;20223;-82
2021/10/10 00:06:02;;;;;;;0.80;0.80;;;7.20;99.90;;;;;;5078770;28;20198;-80
2021/10/10 00:08:29;;;;;;;0.50;0.40;;;7.20;99.90;;;;;;5078974;28;20197;-81
2021/10/10 00:10:55;;;;;;;0.50;0.40;;;7.10;99.90;;;;;;5078404;28;20688;-80
2021/10/10 00:13:22;;;;;;;0.50;0.40;;;7.10;99.90;;;;;;5079161;28;20217;-80
2021/10/10 00:15:49;;;;;;;0.50;0.40;;;7.10;99.90;;;;;;5079448;28;20221;-79
2021/10/10 00:18:16;;;;;;;0.50;0.40;;;7.00;99.90;;;;;;5078707;28;20220;-81
2021/10/10 00:20:43;;;;;;;0.50;0.40;;;7.00;99.90;;;;;;5077873;28;20194;-80
2021/10/10 00:23:11;;;;;;;0.50;0.40;;;7.00;99.90;;;;;;5078340;28;20309;-81
2021/10/10 00:25:38;;;;;;;2.80;2.25;;;7.00;99.90;;;;;;5078358;28;20195;-81
2021/10/10 00:28:05;;;;;;;0.50;0.40;;;6.90;99.90;;;;;;5077640;28;20199;-80
2021/10/10 00:30:32;;;;;;;0.50;0.50;;;7.00;99.90;;;;;;5078509;28;20194;-80
2021/10/10 00:32:58;;;;;;;0.50;0.40;;;7.00;99.90;;;;;;5078197;28;20226;-80
2021/10/10 00:35:25;;;;;;;0.50;0.40;;;7.10;99.90;;;;;;5077891;28;20213;-79
2021/10/10 00:37:52;;;;;;;0.50;0.40;;;7.10;99.90;;;;;;5077179;28;20220;-80
2021/10/10 00:40:20;;;;;;;0.50;0.40;;;7.00;99.90;;;;;;5076859;28;20206;-80
2021/10/10 00:42:47;;;;;;;0.50;0.40;;;6.90;99.90;;;;;;5076820;28;20221;-80
2021/10/10 00:45:13;;;;;;;0.50;0.40;;;6.90;99.90;;;;;;5077781;28;20190;-80
2021/10/10 00:47:43;;;;;;;0.50;0.40;;;6.90;99.90;;;;;;5077054;28;20195;-80
2021/10/10 00:50:10;;;;;;;42.40;40.00;;;6.90;99.90;;;;;;5077198;28;20225;-81
2021/10/10 00:52:41;;;;;;;0.60;0.50;;;6.90;99.90;;;;;;5077173;28;20225;-80
2021/10/10 00:55:09;;;;;;;0.50;0.50;;;6.80;99.90;;;;;;5077005;28;20579;-81
2021/10/10 00:57:42;;;;;;;2.97;1.80;;;6.70;99.90;;;;;;5076627;28;20202;-80
2021/10/10 01:00:09;;;;;;;1.27;1.20;;;6.70;99.90;;;;;;5076499;28;20198;-77
2021/10/10 01:02:37;;;;;;;0.57;0.55;;;6.70;99.90;;;;;;5077271;28;20705;-80
2021/10/10 01:05:05;;;;;;;0.60;0.60;;;6.70;99.90;;;;;;5077011;28;20186;-80
2021/10/10 01:07:32;;;;;;;0.50;0.40;;;6.70;99.90;;;;;;5076967;28;20567;-81
2021/10/10 01:09:59;;;;;;;0.50;0.40;;;6.70;99.90;;;;;;5074949;28;20206;-80
2021/10/10 01:12:26;;;;;;;0.50;0.40;;;6.60;99.90;;;;;;5076613;28;20229;-80
2021/10/10 01:14:55;;;;;;;0.50;0.40;;;6.60;99.90;;;;;;5076513;28;20214;-80
2021/10/10 01:17:24;;;;;;;2.35;2.25;;;6.50;99.90;;;;;;5077423;28;20572;-80
2021/10/10 01:19:52;;;;;;;0.50;0.40;;;6.50;99.90;;;;;;5076112;28;20220;-80
2021/10/10 01:22:21;;;;;;;0.50;0.40;;;6.50;99.90;;;;;;5076100;28;20222;-82
2021/10/10 01:24:48;;;;;;;0.50;0.40;;;6.40;99.90;;;;;;5076338;28;20197;-78
2021/10/10 01:27:15;;;;;;;0.50;0.40;;;6.40;99.90;;;;;;5076436;28;20198;-80
2021/10/10 01:29:42;;;;;;;0.50;0.40;;;6.40;99.90;;;;;;5076501;28;20690;-80
2021/10/10 01:34:44;;;;;;;0.50;0.40;;;6.50;99.90;;;;;;5092600;22;20223;-79
2021/10/10 01:37:11;;;;;;;0.50;0.40;;;6.50;99.90;;;;;;5073160;28;20256;-79
2021/10/10 01:39:39;;;;;;;0.50;0.40;;;6.40;99.90;;;;;;5082204;28;20197;-79
2021/10/10 01:42:06;;;;;;;0.50;0.40;;;6.30;99.90;;;;;;5081263;28;20198;-78
2021/10/10 01:44:33;;;;;;;0.50;0.40;;;6.20;99.90;;;;;;5081276;28;20215;-78
2021/10/10 01:47:00;;;;;;;0.50;0.40;;;6.20;99.90;;;;;;5081888;28;20202;-78
2021/10/10 01:49:27;;;;;;;0.50;0.40;;;6.20;99.90;;;;;;5081402;28;20202;-79
2021/10/10 01:51:54;;;;;;;0.50;0.40;;;6.20;99.90;;;;;;5081536;28;20306;-79
2021/10/10 01:54:21;;;;;;;0.50;0.40;;;6.10;99.90;;;;;;5081622;28;20610;-78
2021/10/10 01:56:49;;;;;;;0.50;0.40;;;6.10;99.90;;;;;;5081523;28;20281;-79
2021/10/10 01:59:16;;;;;;;0.50;0.40;;;6.10;99.90;;;;;;5082212;28;20198;-79
2021/10/10 02:01:42;;;;;;;0.50;0.40;;;6.00;99.90;;;;;;5080451;28;20199;-79
2021/10/10 02:04:09;;;;;;;2.97;2.88;;;5.90;99.90;;;;;;5081621;28;20221;-78
2021/10/10 02:06:36;;;;;;;0.50;0.40;;;5.90;99.90;;;;;;5081566;28;20198;-79
2021/10/10 02:09:03;;;;;;;0.50;0.40;;;5.90;99.90;;;;;;5081723;28;20194;-79
2021/10/10 02:11:30;;;;;;;0.50;0.40;;;5.90;99.90;;;;;;5080442;28;20209;-78
2021/10/10 02:13:58;;;;;;;0.50;0.40;;;6.00;99.90;;;;;;5081116;28;20218;-79
2021/10/10 02:16:24;;;;;;;0.50;0.40;;;6.00;99.90;;;;;;5080364;28;20225;-78
2021/10/10 02:18:53;;;;;;;0.50;0.40;;;6.00;99.90;;;;;;5081268;28;20198;-79
2021/10/10 02:21:20;;;;;;;0.50;0.40;;;6.00;99.90;;;;;;5086294;28;20200;-78
2021/10/10 02:23:46;;;;;;;0.50;0.40;;;5.90;99.90;;;;;;5094792;28;20273;-78
2021/10/10 02:26:13;;;;;;;10.13;2.72;;;5.90;99.90;;;;;;5094034;28;20187;-79
2021/10/10 02:28:40;;;;;;;0.50;0.40;;;6.00;99.90;;;;;;5094191;28;20199;-79
2021/10/10 02:31:08;;;;;;;0.50;0.40;;;6.00;99.90;;;;;;5093492;28;20257;-78
2021/10/10 02:33:34;;;;;;;0.50;0.40;;;6.00;99.90;;;;;;5093954;28;20212;-79
2021/10/10 02:36:01;;;;;;;4.53;4.32;;;6.00;99.90;;;;;;5094243;28;20237;-79
2021/10/10 02:38:28;;;;;;;0.50;0.40;;;6.00;99.90;;;;;;5093702;28;20198;-79
2021/10/10 02:40:55;;;;;;;0.50;0.40;;;6.10;99.90;;;;;;5093207;28;20192;-79
2021/10/10 02:43:21;;;;;;;0.50;0.45;;;6.00;99.90;;;;;;5093608;28;20251;-79
2021/10/10 02:45:49;;;;;;;1.20;1.20;;;5.90;99.90;;;;;;5088747;28;20201;-78
2021/10/10 02:48:17;;;;;;;0.50;0.40;;;5.90;99.90;;;;;;5080573;28;20202;-79
2021/10/10 02:50:44;;;;;;;0.77;0.77;;;5.90;99.90;;;;;;5080004;28;20198;-80
2021/10/10 02:53:11;;;;;;;1.67;1.30;;;6.00;99.90;;;;;;5080291;28;20215;-79
2021/10/10 02:55:37;;;;;;;1.95;1.85;;;6.00;99.90;;;;;;5079902;28;20583;-78
2021/10/10 02:58:04;;;;;;;0.50;0.40;;;5.90;99.90;;;;;;5080385;28;20205;-79
2021/10/10 03:00:31;;;;;;;9.02;8.13;;;5.90;99.90;;;;;;5079231;28;20201;-78
2021/10/10 03:02:57;;;;;;;4.93;4.57;;;5.90;99.90;;;;;;5080421;28;20210;-79
2021/10/10 03:05:26;;;;;;;5.85;2.00;;;6.00;99.90;;;;;;5087164;28;20181;-78
2021/10/10 03:07:52;;;;;;;0.50;0.40;;;6.00;99.90;;;;;;5094312;28;20462;-78
2021/10/10 03:10:19;;;;;;;1.05;1.05;;;6.00;99.90;;;;;;5092636;28;20194;-78
2021/10/10 03:12:46;;;;;;;4.13;3.90;;;6.00;99.90;;;;;;5094300;28;20218;-79
2021/10/10 03:15:13;;;;;;;1.63;1.52;;;6.00;99.90;;;;;;5094484;28;20210;-78
2021/10/10 03:17:39;;;;;;;1.80;1.70;;;6.10;99.90;;;;;;5094134;28;20195;-78
2021/10/10 03:20:07;;;;;;;0.50;0.40;;;6.10;99.90;;;;;;5093456;28;20208;-78
2021/10/10 03:22:35;;;;;;;0.50;0.50;;;6.10;99.90;;;;;;5092951;28;20766;-78
2021/10/10 03:25:02;;;;;;;0.50;0.50;;;6.10;99.90;;;;;;5094505;28;20197;-78
2021/10/10 03:27:29;;;;;;;1.98;1.88;;;6.10;99.90;;;;;;5093142;28;20245;-78
2021/10/10 03:29:56;;;;;;;0.50;0.50;;;6.20;99.90;;;;;;5094371;28;20453;-79
2021/10/10 03:32:23;;;;;;;0.50;0.40;;;6.20;99.90;;;;;;5092376;28;20194;-78
2021/10/10 03:34:50;;;;;;;0.50;0.40;;;6.10;99.90;;;;;;5097722;28;20162;-79
2021/10/10 03:37:17;;;;;;;1.08;1.05;;;6.10;99.90;;;;;;5087611;28;20194;-79
2021/10/10 03:39:45;;;;;;;0.85;0.85;;;6.10;99.90;;;;;;5082516;28;20201;-78
2021/10/10 03:42:12;;;;;;;3.35;3.22;;;6.10;99.90;;;;;;5082752;28;20214;-78
2021/10/10 03:44:39;;;;;;;0.50;0.40;;;6.10;99.90;;;;;;5081883;28;20218;-79
2021/10/10 03:47:05;;;;;;;1.42;1.35;;;6.10;99.90;;;;;;5082424;28;20194;-78
2021/10/10 03:49:33;;;;;;;0.50;0.40;;;6.10;99.90;;;;;;5082937;28;20205;-78
2021/10/10 03:52:01;;;;;;;0.50;0.40;;;6.00;99.90;;;;;;5082534;28;20199;-78
2021/10/10 03:57:19;;;;;;;0.50;0.40;;;5.90;99.90;;;;;;5082837;28;20232;-79
2021/10/10 03:59:49;;;;;;;2.08;1.95;;;6.00;99.90;;;;;;5082547;28;20242;-79
2021/10/10 04:02:15;;;;;;;1.98;1.88;;;5.90;99.90;;;;;;5082420;28;20550;-79
2021/10/10 04:04:42;;;;;;;5.30;2.67;;;6.00;99.90;;;;;;5082468;28;20222;-78
2021/10/10 04:07:09;;;;;;;0.50;0.50;;;6.00;99.90;;;;;;5082263;28;20194;-78
2021/10/10 04:09:36;;;;;;;0.50;0.40;;;6.10;99.90;;;;;;5081636;28;20191;-78
2021/10/10 04:12:03;;;;;;;0.50;0.40;;;6.10;99.90;;;;;;5082018;28;20198;-79
2021/10/10 04:14:31;;;;;;;0.50;0.40;;;6.00;99.90;;;;;;5082562;28;20222;-78
2021/10/10 04:16:57;;;;;;;0.50;0.40;;;6.00;99.90;;;;;;5081796;28;20211;-78
2021/10/10 04:19:24;;;;;;;0.50;0.40;;;6.00;99.90;;;;;;5081535;28;20195;-79
2021/10/10 04:21:51;;;;;;;0.50;0.50;;;5.90;99.90;;;;;;5080422;28;20300;-79
2021/10/10 04:24:18;;;;;;;3.53;3.33;;;5.80;99.90;;;;;;5081986;28;20217;-79
2021/10/10 04:26:44;;;;;;;0.50;0.40;;;5.90;99.90;;;;;;5082068;28;20227;-79
2021/10/10 04:29:11;;;;;;;1.35;1.35;;;5.90;99.90;;;;;;5081619;28;20221;-78
2021/10/10 04:31:39;;;;;;;0.50;0.40;;;5.80;99.90;;;;;;5080877;28;20206;-78
2021/10/10 04:34:06;;;;;;;0.50;0.40;;;5.70;99.90;;;;;;5080980;28;20230;-78
2021/10/10 04:36:33;;;;;;;0.50;0.40;;;5.60;99.90;;;;;;5080851;28;20221;-79
2021/10/10 04:38:59;;;;;;;0.50;0.40;;;5.50;99.90;;;;;;5081552;28;20202;-78
2021/10/10 04:41:26;;;;;;;0.55;0.40;;;5.50;99.90;;;;;;5081013;28;20195;-79
2021/10/10 04:43:53;;;;;;;0.50;0.40;;;5.50;99.90;;;;;;5081061;28;20699;-79
2021/10/10 04:46:20;;;;;;;0.50;0.43;;;5.40;99.90;;;;;;5080525;28;20197;-79
2021/10/10 04:48:48;;;;;;;0.50;0.40;;;5.40;99.90;;;;;;5080929;28;20195;-79
2021/10/10 04:51:14;;;;;;;0.50;0.40;;;5.30;99.90;;;;;;5080473;28;20198;-79
2021/10/10 04:53:41;;;;;;;7.32;4.00;;;5.30;99.90;;;;;;5081333;28;20218;-79
2021/10/10 04:56:08;;;;;;;0.50;0.40;;;5.30;99.90;;;;;;5080023;28;20214;-78
2021/10/10 04:58:35;;;;;;;2.35;2.25;;;5.20;99.90;;;;;;5081481;28;20190;-78
2021/10/10 05:01:01;;;;;;;0.50;0.40;;;5.30;99.90;;;;;;5079852;28;20277;-78
2021/10/10 05:03:28;;;;;;;0.50;0.50;;;5.20;99.90;;;;;;5080563;28;20692;-78
2021/10/10 05:05:57;;;;;;;0.60;0.60;;;5.30;99.90;;;;;;5081060;28;20209;-79
2021/10/10 05:08:23;;;;;;;0.50;0.50;;;5.40;99.90;;;;;;5080767;28;20199;-79
2021/10/10 05:10:50;;;;;;;0.50;0.40;;;5.40;99.90;;;;;;5080251;28;20551;-79
2021/10/10 05:13:17;;;;;;;1.60;0.93;;;5.40;99.90;;;;;;5080435;28;20218;-79
2021/10/10 05:15:44;;;;;;;0.50;0.45;;;5.40;99.90;;;;;;5080157;28;20225;-77
2021/10/10 05:18:10;;;;;;;0.50;0.40;;;5.30;99.90;;;;;;5080710;28;20198;-78
2021/10/10 05:20:37;;;;;;;1.55;1.45;;;5.30;99.90;;;;;;5079588;28;20205;-78
2021/10/10 05:23:05;;;;;;;0.50;0.40;;;5.30;99.90;;;;;;5080543;28;20222;-79
2021/10/10 05:25:32;;;;;;;0.50;0.40;;;5.20;99.90;;;;;;5080450;28;20201;-78
2021/10/10 05:28:00;;;;;;;1.90;1.73;;;5.20;99.90;;;;;;5080148;28;20202;-79
2021/10/10 05:30:27;;;;;;;0.50;0.40;;;5.10;99.90;;;;;;5080151;28;20190;-79
2021/10/10 05:32:53;;;;;;;0.50;0.40;;;5.20;99.90;;;;;;5079480;28;20234;-78
2021/10/10 05:35:20;;;;;;;0.50;0.40;;;5.20;99.90;;;;;;5080256;28;20194;-78
2021/10/10 05:37:47;;;;;;;0.50;0.40;;;5.20;99.90;;;;;;5079214;28;20218;-78
2021/10/10 05:40:15;;;;;;;0.50;0.50;;;5.10;99.90;;;;;;5079448;28;20256;-79
2021/10/10 05:42:42;;;;;;;0.50;0.40;;;5.00;99.90;;;;;;5080146;28;20304;-78
2021/10/10 05:45:10;;;;;;;0.50;0.40;;;4.90;99.90;;;;;;5080277;28;20202;-78
2021/10/10 05:47:37;;;;;;;0.50;0.40;;;4.90;99.90;;;;;;5078780;28;20191;-79
2021/10/10 05:50:04;;;;;;;0.50;0.40;;;4.90;99.90;;;;;;5080509;28;20198;-78
2021/10/10 05:52:31;;;;;;;0.50;0.40;;;4.90;99.90;;;;;;5079561;28;20277;-78
2021/10/10 05:54:58;;;;;;;0.50;0.40;;;4.90;99.90;;;;;;5073676;28;20201;-77
2021/10/10 05:57:32;;;;;;;2.70;1.92;;;4.90;99.90;;;;;;5072523;28;20217;-77
2021/10/10 06:00:02;;;;;;;0.50;0.40;;;5.00;99.90;;;;;;5073521;28;20187;-77
2021/10/10 06:02:29;;;;;;;0.50;0.40;;;5.10;99.90;;;;;;5073135;28;20265;-77
2021/10/10 06:04:56;;;;;;;0.50;0.40;;;5.20;99.90;;;;;;5072782;28;20206;-78
2021/10/10 06:07:23;;;;;;;0.50;0.40;;;5.20;99.90;;;;;;5072703;28;20681;-77
2021/10/10 06:09:50;;;;;;;0.50;0.40;;;5.20;99.90;;;;;;5072968;28;20195;-77
2021/10/10 06:12:16;;;;;;;0.50;0.40;;;5.30;99.90;;;;;;5072438;28;20194;-76
2021/10/10 06:14:47;;;;;;;0.60;0.60;;;5.40;99.90;;;;;;5072835;28;20225;-77
2021/10/10 06:17:15;;;;;;;1.58;1.48;;;5.50;99.90;;;;;;5072975;28;20217;-77
2021/10/10 06:19:42;;;;;;;2.25;2.15;;;5.50;99.90;;;;;;5072335;28;20206;-77
2021/10/10 06:22:09;;;;;;;0.50;0.40;;;5.50;99.90;;;;;;5072729;28;20553;-77
2021/10/10 06:24:35;;;;;;;0.70;0.70;;;5.60;99.90;;;;;;5072382;28;20225;-77
2021/10/10 06:27:03;;;;;;;0.50;0.40;;;5.60;99.90;;;;;;5072462;28;20194;-77
2021/10/10 06:29:30;;;;;;;0.52;0.47;;;5.80;99.90;;;;;;5072404;28;20201;-77
2021/10/10 06:31:58;;;;;;;0.50;0.40;;;5.90;99.90;;;;;;5071929;28;20204;-78
2021/10/10 06:34:25;;;;;;;0.50;0.40;;;5.90;99.90;;;;;;5072393;28;20233;-77
2021/10/10 06:36:52;;;;;;;0.50;0.40;;;6.10;99.90;;;;;;5074669;28;20218;-77
2021/10/10 06:39:19;;;;;;;0.50;0.40;;;6.20;99.90;;;;;;5072218;28;20201;-77
2021/10/10 06:41:46;;;;;;;0.98;0.60;;;6.30;99.90;;;;;;5072480;28;20199;-77
2021/10/10 06:44:13;;;;;;;0.80;0.75;;;6.40;99.90;;;;;;5072859;28;20610;-78
2021/10/10 06:46:40;;;;;;;0.50;0.40;;;6.50;99.90;;;;;;5073068;28;20547;-76
2021/10/10 06:49:08;;;;;;;0.60;0.60;;;6.60;99.90;;;;;;5072121;28;20194;-76
2021/10/10 06:51:35;;;;;;;0.50;0.40;;;6.70;99.90;;;;;;5071831;28;20205;-77
2021/10/10 06:54:01;;;;;;;0.50;0.40;;;6.80;99.90;;;;;;5072653;28;20687;-77
2021/10/10 06:56:28;;;;;;;0.50;0.47;;;6.90;99.90;;;;;;5072031;28;20206;-77
2021/10/10 06:58:55;;;;;;;0.50;0.40;;;7.00;99.90;;;;;;5072545;28;20198;-75
2021/10/10 07:01:22;;;;;;;0.50;0.40;;;7.10;99.90;;;;;;5073151;28;20205;-77
2021/10/10 07:03:49;;;;;;;0.50;0.40;;;7.20;99.90;;;;;;5072556;28;20218;-77
2021/10/10 07:06:17;;;;;;;0.50;0.40;;;7.30;99.90;;;;;;5073219;28;20203;-78
2021/10/10 07:08:44;;;;;;;0.50;0.40;;;7.40;99.90;;;;;;5072177;28;20686;-77
2021/10/10 07:11:11;;;;;;;0.63;0.63;;;7.60;99.90;;;;;;5071929;28;20673;-78
2021/10/10 07:13:38;;;;;;;0.50;0.50;;;7.80;99.90;;;;;;5071697;28;20222;-78
2021/10/10 07:16:05;;;;;;;0.50;0.40;;;8.00;99.90;;;;;;5073848;28;20200;-77
2021/10/10 07:18:41;;;;;;;3.15;1.25;;;8.20;99.90;;;;;;5073782;28;20217;-77
2021/10/10 07:21:19;;;;;;;0.50;0.40;;;8.40;99.90;;;;;;5073729;28;20190;-78
2021/10/10 07:24:07;;;;;;;0.50;0.40;;;8.70;99.90;;;;;;5074104;28;20222;-77
2021/10/10 07:26:34;;;;;;;0.50;0.40;;;9.20;99.90;;;;;;5074070;28;20226;-77
2021/10/10 07:29:02;;;;;;;0.50;0.40;;;9.90;99.90;;;;;;5073402;28;20502;-78
2021/10/10 07:31:29;;;;;;;0.50;0.40;;;10.50;99.90;;;;;;5072880;28;20236;-77
2021/10/10 07:33:56;;;;;;;0.50;0.40;;;11.00;99.90;;;;;;5120465;22;20657;-82
2021/10/10 07:36:22;;;;;;;0.50;0.40;;;11.60;99.90;;;;;;5048347;28;20693;-81
2021/10/10 07:38:50;;;;;;;0.50;0.40;;;12.00;99.90;;;;;;5051448;28;20204;-82
2021/10/10 07:41:17;;;;;;;0.50;0.40;;;12.20;99.90;;;;;;5056213;28;20228;-80
2021/10/10 07:43:44;;;;;;;0.73;0.73;;;12.20;99.90;;;;;;5056559;28;20723;-81
2021/10/10 07:46:18;;;;;;;0.85;0.85;;;12.20;99.90;;;;;;5057431;28;20200;-81
2021/10/10 07:48:45;;;;;;;0.50;0.45;;;12.30;99.90;;;;;;5057052;28;20185;-81
2021/10/10 07:51:12;;;;;;;0.50;0.40;;;12.80;99.90;;;;;;5056609;28;20195;-82
2021/10/10 07:53:39;;;;;;;0.50;0.40;;;13.80;99.90;;;;;;5058621;28;20225;-83
2021/10/10 07:56:07;;;;;;;1.60;1.50;;;15.40;99.90;;;;;;5057553;28;20441;-82
2021/10/10 07:58:33;;;;;;;0.50;0.40;;;17.10;99.90;;;;;;5058633;28;20946;-82
2021/10/10 08:01:01;;;;;;;1.20;1.10;;;18.50;99.90;;;;;;5057552;28;20442;-82
2021/10/10 08:03:28;;;;;;;1.53;1.43;;;19.30;99.90;;;;;;5059522;28;20486;-83
2021/10/10 08:05:55;;;;;;;0.50;0.43;;;19.70;96.30;;;;;;5059469;28;20802;-81
2021/10/10 08:08:22;;;;;;;0.50;0.40;;;20.40;93.00;;;;;;5059079;28;20451;-82
2021/10/10 08:10:48;;;;;;;0.50;0.40;;;21.60;87.10;;;;;;5059024;28;20436;-82
2021/10/10 08:13:17;;;;;;;1.63;1.53;;;22.00;78.70;;;;;;5059272;28;20453;-82
2021/10/10 08:15:43;;;;;;;0.50;0.40;;;21.90;81.40;;;;;;5058745;28;20441;-82
2021/10/10 08:18:10;;;;;;;0.50;0.30;;;22.30;78.00;;;;;;5057183;28;20480;-82
2021/10/10 08:20:38;;;;;;;0.50;0.30;;;21.40;72.90;;;;;;5061470;28;20526;-82
2021/10/10 08:23:06;;;;;;;0.60;0.50;;;20.60;75.60;;;;;;5061688;28;20487;-83
2021/10/10 08:25:32;;;;;;;0.63;0.63;;;20.80;80.30;;;;;;5062300;28;20985;-82
2021/10/10 08:27:59;;;;;;;0.50;0.30;;;22.20;79.10;;;;;;5062562;28;20449;-84
2021/10/10 08:30:27;;;;;;;0.50;0.50;;;23.70;82.80;;;;;;5062751;28;20954;-82
2021/10/10 08:32:54;;;;;;;2.70;2.60;;;24.30;69.40;;;;;;5061949;28;20441;-82
2021/10/10 08:35:21;;;;;;;0.50;0.40;;;25.20;69.60;;;;;;5061852;28;20474;-79
2021/10/10 08:37:48;;;;;;;0.50;0.30;;;25.90;70.90;;;;;;5061340;28;20475;-83
2021/10/10 08:40:16;;;;;;;0.50;0.30;;;26.50;67.00;;;;;;5061680;28;20440;-83
2021/10/10 08:42:47;;;;;;;0.50;0.30;;;27.80;61.50;;;;;;5061765;28;20503;-83
2021/10/10 08:45:17;;;;;;;0.50;0.30;;;29.10;60.80;;;;;;5062051;28;20548;-82
2021/10/10 08:47:46;;;;;;;0.50;0.30;;;29.70;58.20;;;;;;5062946;28;20503;-80
2021/10/10 08:50:17;;;;;;;0.60;0.60;;;30.50;55.30;;;;;;5062213;28;20446;-84
2021/10/10 08:52:45;;;;;;;0.57;0.50;;;31.30;51.90;;;;;;5062536;28;20509;-83
2021/10/10 08:55:12;;;;;;;0.50;0.30;;;31.70;53.00;;;;;;5062420;28;20467;-83
2021/10/10 08:57:39;;;;;;;0.50;0.40;;;31.90;49.60;;;;;;5061557;28;21006;-83
2021/10/10 09:00:11;;;;;;;0.50;0.40;;;31.10;51.70;;;;;;5061907;28;20446;-80
2021/10/10 09:02:39;;;;;;;0.60;0.50;;;31.50;51.20;;;;;;5062075;28;20427;-83
2021/10/10 09:05:09;;;;;;;0.50;0.30;;;31.00;49.60;;;;;;5061183;28;20467;-83
2021/10/10 09:07:37;;;;;;;0.50;0.40;;;30.70;53.20;;;;;;5062664;28;20438;-83
2021/10/10 09:10:21;;;;;;;1.07;1.07;;;30.50;50.10;;;;;;5062443;28;20542;-81
2021/10/10 09:12:48;;;;;;;0.50;0.30;;;30.30;50.50;;;;;;5060558;28;20415;-83
2021/10/10 09:15:18;;;;;;;0.50;0.30;;;30.20;51.30;;;;;;5060861;28;20448;-82
2021/10/10 09:17:56;;;;;;;0.50;0.40;;;30.10;50.40;;;;;;5061186;28;20468;-82
2021/10/10 09:20:29;;;;;;;0.50;0.30;;;31.00;50.40;;;;;;5061177;28;20447;-83
2021/10/10 09:22:55;;;;;;;0.50;0.30;;;31.70;50.50;;;;;;5061219;28;20447;-83
2021/10/10 09:25:23;;;;;;;0.50;0.37;;;31.30;49.10;;;;;;5059911;28;20463;-79
2021/10/10 09:27:49;;;;;;;0.50;0.30;;;29.50;50.40;;;;;;5060168;28;20443;-82
2021/10/10 09:30:19;;;;;;;2.50;2.40;;;27.80;51.50;;;;;;5058073;28;20455;-82
2021/10/10 09:32:46;;;;;;;0.50;0.30;;;26.00;53.30;;;;;;5060162;28;20451;-82
2021/10/10 09:35:24;;;;;;;1.03;0.93;;;23.80;56.70;;;;;;5059028;28;20665;-81
2021/10/10 09:38:08;;;;;;;2.20;1.03;;;22.20;58.70;;;;;;5059523;28;20477;-82
2021/10/10 09:40:40;;;;;;;2.10;2.00;;;21.20;63.20;;;;;;5058853;28;20452;-82
2021/10/10 09:43:07;;;;;;;0.50;0.40;;;20.60;64.70;;;;;;5059379;28;20452;-81
2021/10/10 09:45:41;;;;;;;0.50;0.30;;;20.20;67.90;;;;;;5059080;28;20474;-81
2021/10/10 09:48:08;;;;;;;0.70;0.70;;;20.10;69.40;;;;;;5059939;28;20440;-83
2021/10/10 09:50:36;;;;;;;1.33;1.23;;;19.80;69.30;;;;;;5058239;28;20440;-83
2021/10/10 09:53:06;;;;;;;1.87;0.70;;;19.40;70.30;;;;;;5059326;28;20439;-83
2021/10/10 09:55:34;;;;;;;0.50;0.40;;;18.90;72.10;;;;;;5058652;28;20487;-82
2021/10/10 09:58:02;;;;;;;0.50;0.40;;;18.70;75.90;;;;;;5058992;28;20478;-83
2021/10/10 10:00:30;;;;;;;0.50;0.40;;;18.70;81.80;;;;;;5057471;28;20442;-81
2021/10/10 10:03:07;;;;;;;0.60;0.50;;;18.50;80.90;;;;;;5059389;28;20454;-83
2021/10/10 10:05:34;;;;;;;0.97;0.70;;;18.40;82.90;;;;;;5059377;28;20458;-83
2021/10/10 10:08:01;;;;;;;0.70;0.70;;;18.20;90.00;;;;;;5059632;28;20438;-80
2021/10/10 10:10:31;;;;;;;2.20;1.57;;;18.30;95.70;;;;;;5059949;28;20465;-81
2021/10/10 10:13:01;;;;;;;2.50;2.00;;;18.40;92.90;;;;;;5059476;28;20434;-83
2021/10/10 10:15:29;;;;;;;0.50;0.30;;;18.30;93.80;;;;;;5059540;28;20459;-81
2021/10/10 10:17:57;;;;;;;0.50;0.30;;;18.40;95.40;;;;;;5059992;28;20778;-81
2021/10/10 10:20:25;;;;;;;1.83;1.63;;;18.90;98.20;;;;;;5058302;28;20444;-81
2021/10/10 10:22:55;;;;;;;1.00;1.00;;;19.60;94.70;;;;;;5058940;28;20449;-81
2021/10/10 10:25:24;;;;;;;0.50;0.30;;;20.30;90.60;;;;;;5058412;28;20453;-78
2021/10/10 10:27:53;;;;;;;0.50;0.40;;;20.90;84.40;;;;;;5058750;28;20434;-82
2021/10/10 10:30:23;;;;;;;0.67;0.60;;;21.40;82.70;;;;;;5058257;28;20815;-82
2021/10/10 10:32:54;;;;;;;1.90;1.30;;;21.30;78.80;;;;;;5058898;28;20437;-82
2021/10/10 10:35:21;;;;;;;0.50;0.40;;;21.20;82.90;;;;;;5058017;28;20846;-79
2021/10/10 10:37:50;;;;;;;0.50;0.30;;;20.90;78.70;;;;;;5058177;28;20934;-83
2021/10/10 10:40:30;;;;;;;0.50;0.40;;;21.00;80.40;;;;;;5057713;28;20980;-82
2021/10/10 10:43:01;;;;;;;0.80;0.80;;;21.20;87.20;;;;;;5057450;28;20444;-81
2021/10/10 10:45:29;;;;;;;0.50;0.30;;;21.20;80.90;;;;;;5058219;28;20574;-81
2021/10/10 10:47:57;;;;;;;1.63;1.53;;;20.90;80.00;;;;;;5058601;28;20434;-82
2021/10/10 10:50:26;;;;;;;0.50;0.30;;;21.00;81.70;;;;;;5057790;28;20452;-82
2021/10/10 10:52:58;;;;;;;1.47;1.37;;;21.50;84.50;;;;;;5057940;28;20524;-81
2021/10/10 10:55:26;;;;;;;2.03;1.10;;;21.40;77.40;;;;;;5057729;28;20458;-82
2021/10/10 10:57:54;;;;;;;1.70;1.60;;;21.40;78.40;;;;;;5057390;28;20473;-83
2021/10/10 11:00:25;;;;;;;0.50;0.33;;;21.40;78.90;;;;;;5057314;28;20441;-81
2021/10/10 11:03:09;;;;;;;0.50;0.40;;;21.10;78.80;;;;;;5057751;28;20459;-82
2021/10/10 11:05:48;;;;;;;0.53;0.40;;;21.30;82.20;;;;;;5057289;28;20472;-82
2021/10/10 11:08:41;;;;;;;1.53;1.43;;;22.20;80.30;;;;;;5058078;28;20442;-81
2021/10/10 11:11:16;;;;;;;1.20;1.10;;;22.70;79.70;;;;;;5057171;28;20433;-82
2021/10/10 11:13:45;;;;;;;0.50;0.40;;;22.20;75.70;;;;;;5057563;28;20476;-82
2021/10/10 11:16:15;;;;;;;0.80;0.80;;;21.60;83.20;;;;;;5057496;28;20467;-82
2021/10/10 11:18:47;;;;;;;0.60;0.50;;;22.00;79.00;;;;;;5057544;28;20486;-82
2021/10/10 11:21:16;;;;;;;0.80;0.80;;;22.10;77.50;;;;;;5057382;28;20445;-81
2021/10/10 11:23:43;;;;;;;0.73;0.73;;;21.80;78.10;;;;;;5057686;28;20461;-82
2021/10/10 11:26:11;;;;;;;0.50;0.30;;;21.50;77.30;;;;;;5056818;28;20447;-82
2021/10/10 11:28:44;;;;;;;0.50;0.30;;;21.50;84.10;;;;;;5057443;28;20448;-81
2021/10/10 11:31:14;;;;;;;0.50;0.37;;;21.60;83.30;;;;;;5057348;28;20450;-81
2021/10/10 11:33:42;;;;;;;0.50;0.30;;;22.00;82.60;;;;;;5058461;28;20476;-82
2021/10/10 11:36:09;;;;;;;0.60;0.60;;;21.50;77.10;;;;;;5057913;28;20437;-82
2021/10/10 11:38:51;;;;;;;0.50;0.30;;;21.70;81.30;;;;;;5059676;28;20985;-82
2021/10/10 11:41:18;;;;;;;0.50;0.30;;;22.10;77.30;;;;;;5058696;28;20447;-83
2021/10/10 11:43:59;;;;;;;1.63;1.27;;;23.00;83.20;;;;;;5059056;28;20470;-81
2021/10/10 11:46:38;;;;;;;0.50;0.30;;;23.70;74.60;;;;;;5057756;28;20449;-82
2021/10/10 11:49:24;;;;;;;0.50;0.30;;;23.30;74.70;;;;;;5057835;28;20744;-82
2021/10/10 11:51:51;;;;;;;2.73;2.60;;;23.80;75.90;;;;;;5058323;28;20422;-83
2021/10/10 11:54:26;;;;;;;0.60;0.50;;;24.60;70.60;;;;;;5059541;28;20513;-80
2021/10/10 11:56:58;;;;;;;0.50;0.30;;;25.30;69.20;;;;;;5062308;28;20442;-82
2021/10/10 11:59:25;;;;;;;1.77;1.30;;;25.70;70.70;;;;;;5062080;28;20477;-83
2021/10/10 12:01:54;;;;;;;0.50;0.30;;;26.10;65.10;;;;;;5061986;28;20448;-83
2021/10/10 12:04:21;;;;;;;0.50;0.30;;;25.90;65.00;;;;;;5062284;28;20465;-78
2021/10/10 12:06:49;;;;;;;0.53;0.50;;;25.80;63.80;;;;;;5061588;28;20954;-82
2021/10/10 12:09:16;;;;;;;11.30;2.60;;;26.50;64.20;;;;;;5061086;28;20450;-82
2021/10/10 12:12:03;;;;;;;2.40;1.07;;;25.90;61.40;;;;;;5061254;28;20443;-81
2021/10/10 12:14:44;;;;;;;0.50;0.30;;;24.70;63.50;;;;;;5061513;28;20461;-83
2021/10/10 12:17:26;;;;;;;0.50;0.30;;;24.40;64.50;;;;;;5064074;28;20448;-84
2021/10/10 12:19:53;;;;;;;2.93;2.80;;;24.90;66.30;;;;;;5061523;28;20423;-80
2021/10/10 12:22:20;;;;;;;0.50;0.33;;;24.40;62.40;;;;;;5061649;28;20435;-80
2021/10/10 12:24:48;;;;;;;2.90;2.70;;;24.00;64.50;;;;;;5061662;28;20474;-81
2021/10/10 12:27:25;;;;;;;0.60;0.50;;;23.50;65.40;;;;;;5060374;28;20443;-80
2021/10/10 12:29:52;;;;;;;3.47;1.77;;;23.30;65.10;;;;;;5061406;28;20443;-82
2021/10/10 12:32:22;;;;;;;0.60;0.60;;;23.20;66.00;;;;;;5060057;28;20447;-80
2021/10/10 12:34:49;;;;;;;0.70;0.50;;;23.60;66.70;;;;;;5060372;28;20482;-83
2021/10/10 12:37:18;;;;;;;0.50;0.30;;;24.10;67.90;;;;;;5062412;28;20452;-83
2021/10/10 12:39:46;;;;;;;0.83;0.83;;;24.40;66.40;;;;;;5061930;28;20478;-82
2021/10/10 12:42:13;;;;;;;1.93;1.83;;;24.60;62.30;;;;;;5061967;28;20474;-82
2021/10/10 12:44:40;;;;;;;0.50;0.30;;;24.10;61.40;;;;;;5061160;28;20550;-81
2021/10/10 12:47:07;;;;;;;0.50;0.30;;;24.20;62.60;;;;;;5061752;28;20467;-83
2021/10/10 12:49:37;;;;;;;0.50;0.40;;;24.80;63.60;;;;;;5062268;28;20436;-83
2021/10/10 12:52:08;;;;;;;2.40;2.20;;;25.10;62.30;;;;;;5061690;28;20441;-81
2021/10/10 12:54:39;;;;;;;0.67;0.67;;;25.60;64.30;;;;;;5061529;28;20465;-82
2021/10/10 12:57:07;;;;;;;0.50;0.40;;;26.40;65.20;;;;;;5062101;28;20446;-81
2021/10/10 12:59:36;;;;;;;0.50;0.50;;;26.30;60.40;;;;;;5062031;28;20473;-82
2021/10/10 13:02:06;;;;;;;0.97;0.87;;;26.10;62.50;;;;;;5060732;28;20457;-82
2021/10/10 13:04:34;;;;;;;0.50;0.30;;;26.70;64.50;;;;;;5062214;28;20465;-82